sensor_id;sensor_type;location;lat;lon;timestamp;P1;durP1;ratioP1;P2;durP2;ratioP2
65641;SDS011;52340;-6.720;108.544;2023-04-29T00:00:54;26.20;;;18.58;;
65641;SDS011;52340;-6.720;108.544;2023-04-29T00:01:56;30.80;;;19.02;;
65641;SDS011;52340;-6.720;108.544;2023-04-29T00:02:58;27.98;;;18.50;;
65641;SDS011;52340;-6.720;108.544;2023-04-29T00:04:00;27.77;;;18.52;;
65641;SDS011;52340;-6.720;108.544;2023-04-29T00:05:01;25.80;;;17.83;;
65641;SDS011;52340;-6.720;108.544;2023-04-29T00:06:03;28.05;;;18.58;;
65641;SDS011;52340;-6.720;108.544;2023-04-29T00:07:05;29.92;;;18.83;;
65641;SDS011;52340;-6.720;108.544;2023-04-29T00:08:07;30.17;;;19.52;;
65641;SDS011;52340;-6.720;108.544;2023-04-29T00:09:08;27.38;;;18.75;;
65641;SDS011;52340;-6.720;108.544;2023-04-29T00:10:10;29.25;;;19.60;;
65641;SDS011;52340;-6.720;108.544;2023-04-29T00:11:12;30.42;;;19.85;;
65641;SDS011;52340;-6.720;108.544;2023-04-29T00:12:14;32.45;;;20.35;;
65641;SDS011;52340;-6.720;108.544;2023-04-29T00:13:15;32.80;;;21.45;;
65641;SDS011;52340;-6.720;108.544;2023-04-29T00:14:17;33.97;;;21.42;;
65641;SDS011;52340;-6.720;108.544;2023-04-29T00:15:20;35.03;;;20.85;;
65641;SDS011;52340;-6.720;108.544;2023-04-29T00:16:22;34.75;;;23.35;;
65641;SDS011;52340;-6.720;108.544;2023-04-29T00:17:24;36.63;;;23.25;;
65641;SDS011;52340;-6.720;108.544;2023-04-29T00:18:26;39.25;;;24.73;;
65641;SDS011;52340;-6.720;108.544;2023-04-29T00:19:30;39.78;;;25.10;;
65641;SDS011;52340;-6.720;108.544;2023-04-29T00:20:31;36.05;;;24.48;;
65641;SDS011;52340;-6.720;108.544;2023-04-29T00:21:36;36.83;;;24.63;;
65641;SDS011;52340;-6.720;108.544;2023-04-29T00:22:38;37.90;;;24.90;;
65641;SDS011;52340;-6.720;108.544;2023-04-29T00:23:40;39.42;;;24.52;;
65641;SDS011;52340;-6.720;108.544;2023-04-29T00:24:41;37.08;;;24.38;;
65641;SDS011;52340;-6.720;108.544;2023-04-29T00:25:43;37.33;;;24.73;;
65641;SDS011;52340;-6.720;108.544;2023-04-29T00:26:45;36.42;;;23.40;;
65641;SDS011;52340;-6.720;108.544;2023-04-29T00:27:47;39.33;;;24.75;;
65641;SDS011;52340;-6.720;108.544;2023-04-29T00:28:48;39.03;;;24.45;;
65641;SDS011;52340;-6.720;108.544;2023-04-29T00:29:50;33.85;;;22.60;;
65641;SDS011;52340;-6.720;108.544;2023-04-29T00:30:54;38.50;;;23.25;;
65641;SDS011;52340;-6.720;108.544;2023-04-29T00:31:58;36.53;;;22.88;;
65641;SDS011;52340;-6.720;108.544;2023-04-29T00:33:00;35.60;;;23.02;;
65641;SDS011;52340;-6.720;108.544;2023-04-29T00:34:02;32.42;;;22.05;;
65641;SDS011;52340;-6.720;108.544;2023-04-29T00:35:04;30.23;;;20.27;;
65641;SDS011;52340;-6.720;108.544;2023-04-29T00:36:06;30.60;;;21.60;;
65641;SDS011;52340;-6.720;108.544;2023-04-29T00:37:08;36.67;;;22.15;;
65641;SDS011;52340;-6.720;108.544;2023-04-29T00:38:09;33.85;;;23.42;;
65641;SDS011;52340;-6.720;108.544;2023-04-29T00:39:11;33.17;;;22.13;;
65641;SDS011;52340;-6.720;108.544;2023-04-29T00:40:13;32.97;;;19.90;;
65641;SDS011;52340;-6.720;108.544;2023-04-29T00:41:18;36.35;;;21.20;;
65641;SDS011;52340;-6.720;108.544;2023-04-29T00:42:19;31.23;;;20.00;;
65641;SDS011;52340;-6.720;108.544;2023-04-29T00:43:21;30.50;;;18.90;;
65641;SDS011;52340;-6.720;108.544;2023-04-29T00:44:23;32.53;;;21.42;;
65641;SDS011;52340;-6.720;108.544;2023-04-29T00:45:24;34.28;;;22.45;;
65641;SDS011;52340;-6.720;108.544;2023-04-29T00:46:28;38.97;;;23.25;;
65641;SDS011;52340;-6.720;108.544;2023-04-29T00:47:30;32.72;;;21.65;;
65641;SDS011;52340;-6.720;108.544;2023-04-29T00:48:31;35.03;;;23.13;;
65641;SDS011;52340;-6.720;108.544;2023-04-29T00:49:33;37.00;;;22.23;;
65641;SDS011;52340;-6.720;108.544;2023-04-29T00:50:35;39.63;;;22.92;;
65641;SDS011;52340;-6.720;108.544;2023-04-29T00:51:37;35.05;;;23.50;;
65641;SDS011;52340;-6.720;108.544;2023-04-29T00:52:39;38.85;;;24.35;;
65641;SDS011;52340;-6.720;108.544;2023-04-29T00:53:41;38.40;;;24.38;;
65641;SDS011;52340;-6.720;108.544;2023-04-29T00:54:43;41.63;;;25.52;;
65641;SDS011;52340;-6.720;108.544;2023-04-29T00:55:45;38.80;;;24.90;;
65641;SDS011;52340;-6.720;108.544;2023-04-29T00:56:47;38.95;;;24.70;;
65641;SDS011;52340;-6.720;108.544;2023-04-29T00:57:49;37.50;;;24.48;;
65641;SDS011;52340;-6.720;108.544;2023-04-29T00:58:51;42.03;;;25.38;;
65641;SDS011;52340;-6.720;108.544;2023-04-29T00:59:54;30.77;;;18.98;;
65641;SDS011;52340;-6.720;108.544;2023-04-29T01:00:56;41.35;;;25.23;;
65641;SDS011;52340;-6.720;108.544;2023-04-29T01:02:00;39.83;;;24.90;;
65641;SDS011;52340;-6.720;108.544;2023-04-29T01:03:03;39.22;;;25.08;;
65641;SDS011;52340;-6.720;108.544;2023-04-29T01:04:05;37.13;;;24.73;;
65641;SDS011;52340;-6.720;108.544;2023-04-29T01:05:06;37.45;;;25.83;;
65641;SDS011;52340;-6.720;108.544;2023-04-29T01:06:12;42.75;;;26.40;;
65641;SDS011;52340;-6.720;108.544;2023-04-29T01:07:26;40.38;;;25.20;;
65641;SDS011;52340;-6.720;108.544;2023-04-29T01:08:33;29.40;;;20.92;;
65641;SDS011;52340;-6.720;108.544;2023-04-29T01:10:52;35.88;;;23.52;;
65641;SDS011;52340;-6.720;108.544;2023-04-29T01:11:57;33.70;;;22.10;;
65641;SDS011;52340;-6.720;108.544;2023-04-29T01:13:06;34.40;;;20.00;;
65641;SDS011;52340;-6.720;108.544;2023-04-29T01:14:09;29.45;;;17.08;;
65641;SDS011;52340;-6.720;108.544;2023-04-29T01:15:16;25.73;;;16.50;;
65641;SDS011;52340;-6.720;108.544;2023-04-29T01:16:23;32.15;;;18.60;;
65641;SDS011;52340;-6.720;108.544;2023-04-29T01:17:31;31.67;;;17.95;;
65641;SDS011;52340;-6.720;108.544;2023-04-29T01:18:38;28.05;;;17.13;;
65641;SDS011;52340;-6.720;108.544;2023-04-29T01:19:43;26.85;;;17.60;;
65641;SDS011;52340;-6.720;108.544;2023-04-29T01:20:47;25.58;;;14.93;;
65641;SDS011;52340;-6.720;108.544;2023-04-29T01:21:49;24.20;;;14.60;;
65641;SDS011;52340;-6.720;108.544;2023-04-29T01:22:51;25.27;;;15.27;;
65641;SDS011;52340;-6.720;108.544;2023-04-29T01:23:54;21.70;;;14.20;;
65641;SDS011;52340;-6.720;108.544;2023-04-29T01:24:56;23.60;;;14.10;;
65641;SDS011;52340;-6.720;108.544;2023-04-29T01:25:58;19.08;;;9.80;;
65641;SDS011;52340;-6.720;108.544;2023-04-29T01:27:01;17.48;;;11.20;;
65641;SDS011;52340;-6.720;108.544;2023-04-29T01:28:11;19.02;;;10.23;;
65641;SDS011;52340;-6.720;108.544;2023-04-29T01:29:21;16.58;;;11.00;;
65641;SDS011;52340;-6.720;108.544;2023-04-29T01:30:27;21.98;;;11.63;;
65641;SDS011;52340;-6.720;108.544;2023-04-29T01:31:35;20.25;;;11.13;;
65641;SDS011;52340;-6.720;108.544;2023-04-29T01:33:47;16.90;;;10.55;;
65641;SDS011;52340;-6.720;108.544;2023-04-29T01:34:52;20.13;;;11.30;;
65641;SDS011;52340;-6.720;108.544;2023-04-29T01:36:02;18.13;;;10.52;;
65641;SDS011;52340;-6.720;108.544;2023-04-29T01:37:13;21.75;;;12.63;;
65641;SDS011;52340;-6.720;108.544;2023-04-29T01:40:33;15.35;;;8.27;;
65641;SDS011;52340;-6.720;108.544;2023-04-29T01:41:41;17.88;;;10.70;;
65641;SDS011;52340;-6.720;108.544;2023-04-29T01:42:44;18.20;;;10.00;;
65641;SDS011;52340;-6.720;108.544;2023-04-29T01:43:49;17.55;;;9.88;;
65641;SDS011;52340;-6.720;108.544;2023-04-29T01:44:52;15.10;;;9.13;;
65641;SDS011;52340;-6.720;108.544;2023-04-29T01:45:55;17.40;;;10.05;;
65641;SDS011;52340;-6.720;108.544;2023-04-29T01:46:57;15.25;;;9.07;;
65641;SDS011;52340;-6.720;108.544;2023-04-29T01:47:59;18.83;;;9.55;;
65641;SDS011;52340;-6.720;108.544;2023-04-29T01:49:01;15.98;;;9.45;;
65641;SDS011;52340;-6.720;108.544;2023-04-29T01:50:03;16.67;;;9.20;;
65641;SDS011;52340;-6.720;108.544;2023-04-29T01:51:05;18.90;;;9.32;;
65641;SDS011;52340;-6.720;108.544;2023-04-29T01:52:06;15.43;;;8.35;;
65641;SDS011;52340;-6.720;108.544;2023-04-29T01:53:08;12.35;;;7.03;;
65641;SDS011;52340;-6.720;108.544;2023-04-29T01:54:10;14.65;;;7.10;;
65641;SDS011;52340;-6.720;108.544;2023-04-29T01:55:12;13.65;;;6.97;;
65641;SDS011;52340;-6.720;108.544;2023-04-29T01:56:15;13.18;;;7.47;;
65641;SDS011;52340;-6.720;108.544;2023-04-29T01:57:17;13.73;;;8.32;;
65641;SDS011;52340;-6.720;108.544;2023-04-29T01:58:19;13.10;;;8.10;;
65641;SDS011;52340;-6.720;108.544;2023-04-29T01:59:20;14.38;;;7.80;;
65641;SDS011;52340;-6.720;108.544;2023-04-29T02:00:22;15.80;;;9.02;;
65641;SDS011;52340;-6.720;108.544;2023-04-29T02:01:24;14.85;;;8.32;;
65641;SDS011;52340;-6.720;108.544;2023-04-29T02:02:25;18.65;;;8.57;;
65641;SDS011;52340;-6.720;108.544;2023-04-29T02:03:27;15.07;;;8.40;;
65641;SDS011;52340;-6.720;108.544;2023-04-29T02:04:29;16.95;;;8.75;;
65641;SDS011;52340;-6.720;108.544;2023-04-29T02:05:31;17.83;;;9.45;;
65641;SDS011;52340;-6.720;108.544;2023-04-29T02:06:36;17.60;;;9.18;;
65641;SDS011;52340;-6.720;108.544;2023-04-29T02:07:37;18.40;;;9.70;;
65641;SDS011;52340;-6.720;108.544;2023-04-29T02:08:39;18.83;;;9.63;;
65641;SDS011;52340;-6.720;108.544;2023-04-29T02:09:43;17.35;;;9.73;;
65641;SDS011;52340;-6.720;108.544;2023-04-29T02:10:52;19.02;;;11.10;;
65641;SDS011;52340;-6.720;108.544;2023-04-29T02:11:56;16.08;;;10.25;;
65641;SDS011;52340;-6.720;108.544;2023-04-29T02:12:57;17.02;;;9.85;;
65641;SDS011;52340;-6.720;108.544;2023-04-29T02:13:59;19.42;;;11.10;;
65641;SDS011;52340;-6.720;108.544;2023-04-29T02:15:01;16.25;;;10.25;;
65641;SDS011;52340;-6.720;108.544;2023-04-29T02:16:09;16.95;;;10.65;;
65641;SDS011;52340;-6.720;108.544;2023-04-29T02:17:11;18.65;;;10.85;;
65641;SDS011;52340;-6.720;108.544;2023-04-29T02:18:13;18.25;;;10.65;;
65641;SDS011;52340;-6.720;108.544;2023-04-29T02:19:14;16.67;;;10.07;;
65641;SDS011;52340;-6.720;108.544;2023-04-29T02:20:16;19.10;;;11.02;;
65641;SDS011;52340;-6.720;108.544;2023-04-29T02:21:18;21.10;;;11.07;;
65641;SDS011;52340;-6.720;108.544;2023-04-29T02:22:20;21.80;;;10.77;;
65641;SDS011;52340;-6.720;108.544;2023-04-29T02:23:21;19.70;;;10.98;;
65641;SDS011;52340;-6.720;108.544;2023-04-29T02:24:24;18.25;;;11.18;;
65641;SDS011;52340;-6.720;108.544;2023-04-29T02:25:26;17.92;;;10.27;;
65641;SDS011;52340;-6.720;108.544;2023-04-29T02:26:28;19.42;;;10.88;;
65641;SDS011;52340;-6.720;108.544;2023-04-29T02:27:31;18.80;;;11.40;;
65641;SDS011;52340;-6.720;108.544;2023-04-29T02:28:37;18.95;;;10.75;;
65641;SDS011;52340;-6.720;108.544;2023-04-29T02:29:38;18.02;;;10.98;;
65641;SDS011;52340;-6.720;108.544;2023-04-29T02:30:40;17.38;;;10.40;;
65641;SDS011;52340;-6.720;108.544;2023-04-29T02:31:42;18.60;;;10.50;;
65641;SDS011;52340;-6.720;108.544;2023-04-29T02:32:43;20.02;;;11.85;;
65641;SDS011;52340;-6.720;108.544;2023-04-29T02:33:45;18.17;;;10.98;;
65641;SDS011;52340;-6.720;108.544;2023-04-29T02:34:47;20.67;;;11.45;;
65641;SDS011;52340;-6.720;108.544;2023-04-29T02:35:53;19.02;;;11.15;;
65641;SDS011;52340;-6.720;108.544;2023-04-29T02:36:55;18.25;;;11.38;;
65641;SDS011;52340;-6.720;108.544;2023-04-29T02:37:57;17.75;;;10.82;;
65641;SDS011;52340;-6.720;108.544;2023-04-29T02:38:59;21.05;;;11.07;;
65641;SDS011;52340;-6.720;108.544;2023-04-29T02:40:00;18.77;;;11.35;;
65641;SDS011;52340;-6.720;108.544;2023-04-29T02:41:02;21.40;;;10.80;;
65641;SDS011;52340;-6.720;108.544;2023-04-29T02:42:04;19.63;;;11.35;;
65641;SDS011;52340;-6.720;108.544;2023-04-29T02:44:15;20.83;;;11.25;;
65641;SDS011;52340;-6.720;108.544;2023-04-29T02:45:17;18.90;;;11.38;;
65641;SDS011;52340;-6.720;108.544;2023-04-29T02:46:19;18.25;;;11.40;;
65641;SDS011;52340;-6.720;108.544;2023-04-29T02:47:20;19.45;;;11.70;;
65641;SDS011;52340;-6.720;108.544;2023-04-29T03:40:37;13.00;;;8.23;;
65641;SDS011;52340;-6.720;108.544;2023-04-29T03:41:39;13.90;;;8.30;;
65641;SDS011;52340;-6.720;108.544;2023-04-29T03:46:05;13.38;;;8.13;;
65641;SDS011;52340;-6.720;108.544;2023-04-29T03:47:07;12.88;;;7.90;;
65641;SDS011;52340;-6.720;108.544;2023-04-29T03:48:08;14.98;;;8.30;;
65641;SDS011;52340;-6.720;108.544;2023-04-29T03:49:09;13.85;;;8.48;;
65641;SDS011;52340;-6.720;108.544;2023-04-29T03:51:19;13.30;;;8.60;;
65641;SDS011;52340;-6.720;108.544;2023-04-29T03:55:44;17.25;;;9.45;;
65641;SDS011;52340;-6.720;108.544;2023-04-29T04:00:16;17.00;;;8.07;;
65641;SDS011;52340;-6.720;108.544;2023-04-29T04:01:17;12.02;;;8.43;;
65641;SDS011;52340;-6.720;108.544;2023-04-29T04:04:39;16.92;;;8.95;;
65641;SDS011;52340;-6.720;108.544;2023-04-29T04:06:51;13.52;;;9.00;;
65641;SDS011;52340;-6.720;108.544;2023-04-29T04:10:13;13.68;;;8.77;;
65641;SDS011;52340;-6.720;108.544;2023-04-29T04:13:28;16.88;;;9.60;;
65641;SDS011;52340;-6.720;108.544;2023-04-29T04:16:34;16.23;;;9.93;;
65641;SDS011;52340;-6.720;108.544;2023-04-29T04:17:36;16.77;;;10.02;;
65641;SDS011;52340;-6.720;108.544;2023-04-29T04:23:15;14.10;;;9.23;;
65641;SDS011;52340;-6.720;108.544;2023-04-29T04:37:12;14.48;;;9.13;;
65641;SDS011;52340;-6.720;108.544;2023-04-29T04:38:13;14.60;;;9.63;;
65641;SDS011;52340;-6.720;108.544;2023-04-29T04:50:45;16.63;;;8.77;;
65641;SDS011;52340;-6.720;108.544;2023-04-29T04:59:44;16.60;;;10.02;;
65641;SDS011;52340;-6.720;108.544;2023-04-29T05:00:45;16.15;;;9.52;;
65641;SDS011;52340;-6.720;108.544;2023-04-29T05:05:32;16.67;;;9.88;;
65641;SDS011;52340;-6.720;108.544;2023-04-29T05:20:37;16.42;;;10.40;;
65641;SDS011;52340;-6.720;108.544;2023-04-29T05:22:48;21.20;;;10.65;;
65641;SDS011;52340;-6.720;108.544;2023-04-29T05:36:40;18.83;;;11.00;;
65641;SDS011;52340;-6.720;108.544;2023-04-29T06:52:03;18.42;;;10.80;;
65641;SDS011;52340;-6.720;108.544;2023-04-29T06:58:51;14.23;;;8.90;;
65641;SDS011;52340;-6.720;108.544;2023-04-29T07:52:34;6.50;;;2.50;;
65641;SDS011;52340;-6.720;108.544;2023-04-29T08:05:17;6.35;;;2.42;;
65641;SDS011;52340;-6.720;108.544;2023-04-29T08:56:29;7.82;;;3.22;;
65641;SDS011;52340;-6.720;108.544;2023-04-29T10:01:49;4.57;;;1.92;;
65641;SDS011;52340;-6.720;108.544;2023-04-29T10:35:34;7.53;;;3.50;;
65641;SDS011;52340;-6.720;108.544;2023-04-29T10:36:37;6.85;;;2.90;;
65641;SDS011;52340;-6.720;108.544;2023-04-29T10:37:39;6.95;;;3.35;;
65641;SDS011;52340;-6.720;108.544;2023-04-29T10:38:41;9.20;;;3.47;;
65641;SDS011;52340;-6.720;108.544;2023-04-29T10:43:11;7.68;;;3.78;;
65641;SDS011;52340;-6.720;108.544;2023-04-29T11:09:52;16.40;;;9.50;;
65641;SDS011;52340;-6.720;108.544;2023-04-29T11:19:05;12.77;;;6.13;;
65641;SDS011;52340;-6.720;108.544;2023-04-29T11:48:15;8.80;;;3.80;;
65641;SDS011;52340;-6.720;108.544;2023-04-29T12:01:11;13.48;;;4.50;;
65641;SDS011;52340;-6.720;108.544;2023-04-29T12:02:15;11.77;;;5.18;;
65641;SDS011;52340;-6.720;108.544;2023-04-29T12:03:19;14.18;;;5.55;;
65641;SDS011;52340;-6.720;108.544;2023-04-29T12:12:08;31.73;;;14.52;;
65641;SDS011;52340;-6.720;108.544;2023-04-29T12:14:20;28.95;;;16.25;;
65641;SDS011;52340;-6.720;108.544;2023-04-29T12:15:25;32.53;;;17.15;;
65641;SDS011;52340;-6.720;108.544;2023-04-29T12:16:27;34.70;;;19.77;;
65641;SDS011;52340;-6.720;108.544;2023-04-29T12:19:43;38.15;;;21.55;;
65641;SDS011;52340;-6.720;108.544;2023-04-29T12:20:45;44.30;;;22.67;;
65641;SDS011;52340;-6.720;108.544;2023-04-29T12:21:49;41.30;;;23.25;;
65641;SDS011;52340;-6.720;108.544;2023-04-29T12:22:52;45.63;;;24.30;;
65641;SDS011;52340;-6.720;108.544;2023-04-29T12:23:57;44.72;;;24.10;;
65641;SDS011;52340;-6.720;108.544;2023-04-29T12:25:00;43.90;;;24.45;;
65641;SDS011;52340;-6.720;108.544;2023-04-29T12:27:13;41.28;;;24.75;;
65641;SDS011;52340;-6.720;108.544;2023-04-29T12:28:15;42.95;;;24.83;;
65641;SDS011;52340;-6.720;108.544;2023-04-29T12:30:31;44.20;;;24.88;;
65641;SDS011;52340;-6.720;108.544;2023-04-29T12:31:34;46.60;;;25.48;;
65641;SDS011;52340;-6.720;108.544;2023-04-29T12:34:49;45.15;;;25.60;;
65641;SDS011;52340;-6.720;108.544;2023-04-29T12:36:55;49.00;;;26.05;;
65641;SDS011;52340;-6.720;108.544;2023-04-29T12:43:31;51.65;;;25.83;;
65641;SDS011;52340;-6.720;108.544;2023-04-29T12:46:53;50.72;;;27.10;;
65641;SDS011;52340;-6.720;108.544;2023-04-29T12:50:17;54.63;;;30.38;;
65641;SDS011;52340;-6.720;108.544;2023-04-29T13:00:20;51.35;;;28.27;;
65641;SDS011;52340;-6.720;108.544;2023-04-29T13:01:22;48.58;;;28.35;;
65641;SDS011;52340;-6.720;108.544;2023-04-29T13:03:34;48.60;;;26.88;;
65641;SDS011;52340;-6.720;108.544;2023-04-29T13:09:12;45.45;;;27.23;;
65641;SDS011;52340;-6.720;108.544;2023-04-29T13:10:14;44.08;;;25.38;;
65641;SDS011;52340;-6.720;108.544;2023-04-29T13:12:26;43.60;;;24.83;;
65641;SDS011;52340;-6.720;108.544;2023-04-29T13:14:38;44.53;;;25.17;;
65641;SDS011;52340;-6.720;108.544;2023-04-29T13:20:14;41.03;;;23.40;;
65641;SDS011;52340;-6.720;108.544;2023-04-29T13:24:46;40.20;;;22.63;;
65641;SDS011;52340;-6.720;108.544;2023-04-29T13:29:14;38.05;;;22.27;;
65641;SDS011;52340;-6.720;108.544;2023-04-29T13:31:26;38.75;;;22.92;;
65641;SDS011;52340;-6.720;108.544;2023-04-29T13:33:41;39.20;;;23.13;;
65641;SDS011;52340;-6.720;108.544;2023-04-29T13:34:42;39.40;;;22.70;;
65641;SDS011;52340;-6.720;108.544;2023-04-29T13:38:00;38.78;;;20.75;;
65641;SDS011;52340;-6.720;108.544;2023-04-29T13:41:07;35.58;;;20.92;;
65641;SDS011;52340;-6.720;108.544;2023-04-29T13:44:23;38.63;;;19.58;;
65641;SDS011;52340;-6.720;108.544;2023-04-29T13:45:25;35.00;;;19.98;;
65641;SDS011;52340;-6.720;108.544;2023-04-29T13:53:00;35.03;;;20.92;;
65641;SDS011;52340;-6.720;108.544;2023-04-29T13:58:44;36.20;;;20.70;;
65641;SDS011;52340;-6.720;108.544;2023-04-29T13:59:46;36.90;;;22.42;;
65641;SDS011;52340;-6.720;108.544;2023-04-29T14:04:18;37.50;;;19.90;;
65641;SDS011;52340;-6.720;108.544;2023-04-29T14:10:59;32.33;;;18.85;;
65641;SDS011;52340;-6.720;108.544;2023-04-29T14:12:01;31.02;;;18.30;;
65641;SDS011;52340;-6.720;108.544;2023-04-29T14:13:06;30.17;;;17.08;;
65641;SDS011;52340;-6.720;108.544;2023-04-29T14:14:09;29.40;;;16.63;;
65641;SDS011;52340;-6.720;108.544;2023-04-29T14:16:24;31.40;;;17.95;;
65641;SDS011;52340;-6.720;108.544;2023-04-29T14:17:26;32.03;;;18.00;;
65641;SDS011;52340;-6.720;108.544;2023-04-29T14:18:33;29.20;;;17.45;;
65641;SDS011;52340;-6.720;108.544;2023-04-29T14:19:38;32.42;;;17.63;;
65641;SDS011;52340;-6.720;108.544;2023-04-29T14:20:40;30.25;;;17.88;;
65641;SDS011;52340;-6.720;108.544;2023-04-29T14:21:42;32.33;;;18.13;;
65641;SDS011;52340;-6.720;108.544;2023-04-29T14:22:44;31.02;;;18.30;;
65641;SDS011;52340;-6.720;108.544;2023-04-29T14:23:48;33.05;;;18.83;;
65641;SDS011;52340;-6.720;108.544;2023-04-29T14:24:50;32.15;;;18.30;;
65641;SDS011;52340;-6.720;108.544;2023-04-29T14:28:01;32.40;;;18.60;;
65641;SDS011;52340;-6.720;108.544;2023-04-29T14:30:15;31.75;;;19.38;;
65641;SDS011;52340;-6.720;108.544;2023-04-29T14:32:27;34.17;;;18.60;;
65641;SDS011;52340;-6.720;108.544;2023-04-29T14:35:49;38.10;;;19.77;;
65641;SDS011;52340;-6.720;108.544;2023-04-29T14:39:00;34.28;;;20.42;;
65641;SDS011;52340;-6.720;108.544;2023-04-29T14:40:04;38.00;;;20.17;;
65641;SDS011;52340;-6.720;108.544;2023-04-29T14:41:07;35.97;;;19.75;;
65641;SDS011;52340;-6.720;108.544;2023-04-29T14:42:08;36.35;;;20.17;;
65641;SDS011;52340;-6.720;108.544;2023-04-29T14:43:10;38.00;;;20.65;;
65641;SDS011;52340;-6.720;108.544;2023-04-29T14:46:18;33.40;;;20.15;;
65641;SDS011;52340;-6.720;108.544;2023-04-29T14:47:22;32.78;;;18.83;;
65641;SDS011;52340;-6.720;108.544;2023-04-29T14:48:27;34.22;;;19.45;;
65641;SDS011;52340;-6.720;108.544;2023-04-29T14:50:32;32.50;;;18.60;;
65641;SDS011;52340;-6.720;108.544;2023-04-29T14:51:34;33.58;;;18.48;;
65641;SDS011;52340;-6.720;108.544;2023-04-29T14:52:36;32.20;;;17.70;;
65641;SDS011;52340;-6.720;108.544;2023-04-29T14:54:48;31.55;;;17.10;;
65641;SDS011;52340;-6.720;108.544;2023-04-29T14:55:49;29.23;;;16.95;;
65641;SDS011;52340;-6.720;108.544;2023-04-29T14:59:11;30.30;;;16.98;;
65641;SDS011;52340;-6.720;108.544;2023-04-29T15:00:13;30.05;;;17.35;;
65641;SDS011;52340;-6.720;108.544;2023-04-29T15:06:48;31.13;;;15.98;;
65641;SDS011;52340;-6.720;108.544;2023-04-29T15:07:50;29.83;;;16.92;;
65641;SDS011;52340;-6.720;108.544;2023-04-29T15:08:52;33.13;;;16.75;;
65641;SDS011;52340;-6.720;108.544;2023-04-29T15:12:14;29.67;;;16.27;;
65641;SDS011;52340;-6.720;108.544;2023-04-29T15:13:16;27.80;;;16.50;;
65641;SDS011;52340;-6.720;108.544;2023-04-29T15:16:29;32.25;;;16.35;;
65641;SDS011;52340;-6.720;108.544;2023-04-29T15:17:31;29.98;;;16.30;;
65641;SDS011;52340;-6.720;108.544;2023-04-29T15:18:32;31.85;;;16.05;;
65641;SDS011;52340;-6.720;108.544;2023-04-29T15:19:34;26.40;;;16.20;;
65641;SDS011;52340;-6.720;108.544;2023-04-29T15:20:36;28.38;;;15.77;;
65641;SDS011;52340;-6.720;108.544;2023-04-29T15:24:01;29.98;;;15.73;;
65641;SDS011;52340;-6.720;108.544;2023-04-29T15:29:43;25.17;;;14.45;;
65641;SDS011;52340;-6.720;108.544;2023-04-29T15:38:56;31.77;;;15.50;;
65641;SDS011;52340;-6.720;108.544;2023-04-29T15:43:30;26.10;;;15.15;;
65641;SDS011;52340;-6.720;108.544;2023-04-29T15:44:32;26.02;;;14.57;;
65641;SDS011;52340;-6.720;108.544;2023-04-29T15:46:33;31.00;;;15.37;;
65641;SDS011;52340;-6.720;108.544;2023-04-29T15:48:47;24.45;;;14.68;;
65641;SDS011;52340;-6.720;108.544;2023-04-29T15:49:48;28.10;;;15.38;;
65641;SDS011;52340;-6.720;108.544;2023-04-29T15:50:50;26.70;;;15.52;;
65641;SDS011;52340;-6.720;108.544;2023-04-29T15:51:54;28.27;;;15.02;;
65641;SDS011;52340;-6.720;108.544;2023-04-29T15:52:56;26.70;;;15.80;;
65641;SDS011;52340;-6.720;108.544;2023-04-29T15:53:58;30.20;;;15.07;;
65641;SDS011;52340;-6.720;108.544;2023-04-29T15:56:09;24.42;;;14.95;;
65641;SDS011;52340;-6.720;108.544;2023-04-29T16:04:13;27.90;;;14.60;;
65641;SDS011;52340;-6.720;108.544;2023-04-29T16:18:04;28.83;;;15.20;;
65641;SDS011;52340;-6.720;108.544;2023-04-29T16:19:05;26.08;;;14.20;;
65641;SDS011;52340;-6.720;108.544;2023-04-29T16:36:22;31.05;;;15.55;;
65641;SDS011;52340;-6.720;108.544;2023-04-29T16:42:05;26.40;;;15.70;;
65641;SDS011;52340;-6.720;108.544;2023-04-29T16:59:24;33.25;;;18.85;;
65641;SDS011;52340;-6.720;108.544;2023-04-29T17:31:49;29.10;;;16.13;;
65641;SDS011;52340;-6.720;108.544;2023-04-29T19:10:18;27.95;;;17.42;;
65641;SDS011;52340;-6.720;108.544;2023-04-29T19:11:20;30.13;;;17.42;;
65641;SDS011;52340;-6.720;108.544;2023-04-29T19:18:07;32.50;;;18.67;;
65641;SDS011;52340;-6.720;108.544;2023-04-29T19:20:19;31.58;;;18.20;;
65641;SDS011;52340;-6.720;108.544;2023-04-29T19:22:34;34.17;;;19.70;;
65641;SDS011;52340;-6.720;108.544;2023-04-29T19:23:36;36.88;;;19.95;;
65641;SDS011;52340;-6.720;108.544;2023-04-29T19:24:38;35.45;;;20.08;;
65641;SDS011;52340;-6.720;108.544;2023-04-29T19:25:41;37.72;;;21.25;;
65641;SDS011;52340;-6.720;108.544;2023-04-29T19:27:53;45.55;;;21.67;;
65641;SDS011;52340;-6.720;108.544;2023-04-29T19:28:55;35.03;;;19.98;;
65641;SDS011;52340;-6.720;108.544;2023-04-29T19:31:09;43.90;;;21.30;;
65641;SDS011;52340;-6.720;108.544;2023-04-29T19:32:11;38.95;;;20.98;;
65641;SDS011;52340;-6.720;108.544;2023-04-29T19:33:12;37.40;;;22.48;;
65641;SDS011;52340;-6.720;108.544;2023-04-29T19:36:34;39.97;;;21.70;;
65641;SDS011;52340;-6.720;108.544;2023-04-29T19:37:36;41.03;;;22.60;;
65641;SDS011;52340;-6.720;108.544;2023-04-29T19:38:38;39.38;;;21.33;;
65641;SDS011;52340;-6.720;108.544;2023-04-29T19:40:51;38.35;;;21.08;;
65641;SDS011;52340;-6.720;108.544;2023-04-29T19:41:54;39.53;;;19.95;;
65641;SDS011;52340;-6.720;108.544;2023-04-29T19:42:56;35.42;;;19.83;;
65641;SDS011;52340;-6.720;108.544;2023-04-29T19:43:57;35.10;;;18.30;;
65641;SDS011;52340;-6.720;108.544;2023-04-29T19:44:59;31.65;;;17.65;;
65641;SDS011;52340;-6.720;108.544;2023-04-29T19:48:18;26.50;;;16.45;;
65641;SDS011;52340;-6.720;108.544;2023-04-29T19:49:19;28.02;;;15.60;;
65641;SDS011;52340;-6.720;108.544;2023-04-29T19:50:21;29.20;;;15.48;;
65641;SDS011;52340;-6.720;108.544;2023-04-29T19:54:48;28.52;;;15.27;;
65641;SDS011;52340;-6.720;108.544;2023-04-29T19:55:51;27.80;;;15.02;;
65641;SDS011;52340;-6.720;108.544;2023-04-29T19:58:03;27.90;;;14.73;;
65641;SDS011;52340;-6.720;108.544;2023-04-29T19:59:05;27.50;;;15.48;;
65641;SDS011;52340;-6.720;108.544;2023-04-29T20:00:07;27.35;;;14.80;;
65641;SDS011;52340;-6.720;108.544;2023-04-29T20:02:16;23.92;;;14.13;;
65641;SDS011;52340;-6.720;108.544;2023-04-29T20:04:22;25.23;;;13.48;;
65641;SDS011;52340;-6.720;108.544;2023-04-29T20:05:23;28.05;;;14.10;;
65641;SDS011;52340;-6.720;108.544;2023-04-29T20:06:25;21.42;;;13.20;;
65641;SDS011;52340;-6.720;108.544;2023-04-29T20:07:27;25.58;;;13.45;;
65641;SDS011;52340;-6.720;108.544;2023-04-29T20:10:44;24.92;;;13.15;;
65641;SDS011;52340;-6.720;108.544;2023-04-29T20:11:47;23.23;;;12.80;;
65641;SDS011;52340;-6.720;108.544;2023-04-29T20:13:56;26.67;;;13.70;;
65641;SDS011;52340;-6.720;108.544;2023-04-29T20:14:58;26.25;;;13.82;;
65641;SDS011;52340;-6.720;108.544;2023-04-29T20:17:10;26.85;;;15.10;;
65641;SDS011;52340;-6.720;108.544;2023-04-29T20:18:12;24.55;;;12.98;;
65641;SDS011;52340;-6.720;108.544;2023-04-29T20:19:13;28.67;;;14.02;;
65641;SDS011;52340;-6.720;108.544;2023-04-29T20:20:15;25.02;;;13.43;;
65641;SDS011;52340;-6.720;108.544;2023-04-29T20:21:17;26.70;;;14.02;;